Coastal 303 — WDE2540 — position and weather

sailwx.info

Track history (hours):
 
Tides and Currents Weather Stations Pressure Air Temp Water Temp Dewpoint Dewpoint Depression Visibility Wind Speed Wind Dir Waves Ship Positions

Coastal 303

Owner: U.S. United Ocean Services, LLC, Tampa, FL. More information available from US FCC via Universal Licensing System and Coast Guard Vessel Documentation Center.

Last reported at 2014-Dec-19 16:22 UTC. Time now 2014-Dec-21 15:08 UTC.
Position N 27°39' W 083°19'.

Length 180 m; draft 8.2 m.

Type: Towing. MMSI: 366751340.

Date/timePositionNaut miles runAvg speedWind from/ knotsBaromVisibWave heightAir tempDewpointWater temp
2014-Dec-19 16:22N 27°39' W 083°19'36 9.1
2014-Dec-19 12:23N 27°38' W 082°38'8 9.6
2014-Dec-19 11:33N 27°44' W 082°32'3 1.7
2014-Dec-19 09:31N 27°47' W 082°30'0 0.0
2014-Dec-19 08:28N 27°47' W 082°30'0 0.0
2014-Dec-19 07:16N 27°47' W 082°30'0 0.0
2014-Dec-19 06:28N 27°47' W 082°30'0 0.0
2014-Dec-19 05:31N 27°47' W 082°30'0 0.1
2014-Dec-19 04:31N 27°47' W 082°30'0 0.1
2014-Dec-19 03:31N 27°47' W 082°30'0 0.0
2014-Dec-19 02:31N 27°47' W 082°30'0 0.0
2014-Dec-19 01:31N 27°47' W 082°30'0 0.0
2014-Dec-19 00:31N 27°47' W 082°30'0 0.0
2014-Dec-18 23:31N 27°47' W 082°30'0 0.0
2014-Dec-18 22:25N 27°47' W 082°30'0 0.1
2014-Dec-18 21:32N 27°47' W 082°30'4 3.9
2014-Dec-18 20:33N 27°49' W 082°26'2 1.5
2014-Dec-18 19:33N 27°48' W 082°25'0 0.1
2014-Dec-18 18:33N 27°48' W 082°25'0 0.0
2014-Dec-18 17:31N 27°48' W 082°25'0 0.0
2014-Dec-18 16:31N 27°48' W 082°25'0 0.0
2014-Dec-18 15:31N 27°48' W 082°25'0 0.0
2014-Dec-18 14:31N 27°48' W 082°25'0 0.0
2014-Dec-18 13:31N 27°48' W 082°25'0 0.0
2014-Dec-18 12:31N 27°48' W 082°25'0 0.0
2014-Dec-18 11:28N 27°48' W 082°25'0 0.0
2014-Dec-18 10:31N 27°48' W 082°25'0 0.0
2014-Dec-18 09:31N 27°48' W 082°25'0 0.0
2014-Dec-18 08:31N 27°48' W 082°25'0 0.0
2014-Dec-18 07:31N 27°48' W 082°25'0 0.0
2014-Dec-18 06:31N 27°48' W 082°25'0 0.0
2014-Dec-18 05:31N 27°48' W 082°25'0 0.0
2014-Dec-18 04:31N 27°48' W 082°25'0 0.0
2014-Dec-18 03:31N 27°48' W 082°25'0 0.0
2014-Dec-18 02:31N 27°48' W 082°25'0 0.0
2014-Dec-18 01:31N 27°48' W 082°25'0 0.0
2014-Dec-18 00:31N 27°48' W 082°25'0 0.0
2014-Dec-17 23:31N 27°48' W 082°25'0 0.0
2014-Dec-17 22:31N 27°48' W 082°25'0 0.0
2014-Dec-17 21:31N 27°48' W 082°25'0 0.0
2014-Dec-17 20:31N 27°48' W 082°25'0 0.0
2014-Dec-17 19:31N 27°48' W 082°25'0 0.1
2014-Dec-17 18:31N 27°48' W 082°25'1 0.5
2014-Dec-17 17:31N 27°48' W 082°25'0 0.1
2014-Dec-17 16:28N 27°48' W 082°25'0 0.0
2014-Dec-17 15:32N 27°48' W 082°25'0 0.0
2014-Dec-17 14:32N 27°48' W 082°25'0 0.0
2014-Dec-17 13:33N 27°48' W 082°25'0 0.0
2014-Dec-17 12:33N 27°48' W 082°25'0 0.0
2014-Dec-17 11:27N 27°48' W 082°25'0 0.0
2014-Dec-17 10:23N 27°48' W 082°25'0 0.0
2014-Dec-17 09:29N 27°48' W 082°25'0 0.0
2014-Dec-17 08:29N 27°48' W 082°25'0 0.0
2014-Dec-17 07:29N 27°48' W 082°25'0 0.0
2014-Dec-17 06:29N 27°48' W 082°25'0 0.0
2014-Dec-17 05:32N 27°48' W 082°25'0 0.0
2014-Dec-17 04:32N 27°48' W 082°25'0 0.0
2014-Dec-17 03:32N 27°48' W 082°25'0 0.0
2014-Dec-17 02:29N 27°48' W 082°25'0 0.0
2014-Dec-17 01:32N 27°48' W 082°25'0 0.0
2014-Dec-17 00:32N 27°48' W 082°25'0 0.0
2014-Dec-16 23:32N 27°48' W 082°25'0 0.0
2014-Dec-16 22:32N 27°48' W 082°25'0 0.0
2014-Dec-16 21:29N 27°48' W 082°25'0 0.0
2014-Dec-16 20:29N 27°48' W 082°25'0 0.0
2014-Dec-16 19:29N 27°48' W 082°25'0 0.0
2014-Dec-16 18:32N 27°48' W 082°25'0 0.0
2014-Dec-16 17:23N 27°48' W 082°25'0 0.0
2014-Dec-16 16:29N 27°48' W 082°25'0 0.0
2014-Dec-16 15:29N 27°48' W 082°25'0 0.0
2014-Dec-16 14:29N 27°48' W 082°25'0 0.0
2014-Dec-16 12:17N 27°48' W 082°25'0 0.0
2014-Dec-16 08:17N 27°48' W 082°25'0 0.0
2014-Dec-16 07:23N 27°48' W 082°25'0 0.0
2014-Dec-16 04:11N 27°48' W 082°25'0 0.0
2014-Dec-16 03:32N 27°48' W 082°25'0 0.0
2014-Dec-16 02:11N 27°48' W 082°25'0 0.0
2014-Dec-16 01:22N 27°48' W 082°25'0 0.0
2014-Dec-15 23:32N 27°48' W 082°25'0 0.0
2014-Dec-15 22:23N 27°48' W 082°25'0 0.0
2014-Dec-15 21:29N 27°48' W 082°25'0 0.0
2014-Dec-15 20:30N 27°48' W 082°25'0 0.0
2014-Dec-15 19:30N 27°48' W 082°25'0 0.0
2014-Dec-15 18:30N 27°48' W 082°25'0 0.0
2014-Dec-15 17:30N 27°48' W 082°25'0 0.0
2014-Dec-15 16:33N 27°48' W 082°25'0 0.0
2014-Dec-15 15:27N 27°48' W 082°25'0 0.0
2014-Dec-15 14:33N 27°48' W 082°25'0 0.0
2014-Dec-15 13:33N 27°48' W 082°25'0 0.0
2014-Dec-15 12:30N 27°48' W 082°25'0 0.0
2014-Dec-15 11:30N 27°48' W 082°25'0 0.0
2014-Dec-15 10:33N 27°48' W 082°25'0 0.0
2014-Dec-15 09:33N 27°48' W 082°25'0 0.0
2014-Dec-15 08:30N 27°48' W 082°25'0 0.0
2014-Dec-15 07:30N 27°48' W 082°25'0 0.0
2014-Dec-15 06:27N 27°48' W 082°25'0 0.0
2014-Dec-15 05:30N 27°48' W 082°25'0 0.0
2014-Dec-15 04:18N 27°48' W 082°25'0 0.0
2014-Dec-15 03:30N 27°48' W 082°25'0 0.0
2014-Dec-15 02:24N 27°48' W 082°25'0 0.0
2014-Dec-15 01:30N 27°48' W 082°25'0 0.0
2014-Dec-14 22:33N 27°48' W 082°25'0 0.3
2014-Dec-14 21:33N 27°48' W 082°25'5 4.8
2014-Dec-14 20:33N 27°47' W 082°30'0 0.3
2014-Dec-14 19:33N 27°47' W 082°30'0 0.1
2014-Dec-14 18:28N 27°47' W 082°30'0 0.0
2014-Dec-14 17:33N 27°47' W 082°30'1 1.3
2014-Dec-14 16:32N 27°46' W 082°31'24 6.0
2014-Dec-14 12:33N 27°37' W 082°56'0 0.0
2014-Dec-14 11:18N 27°37' W 082°56'0 0.0
2014-Dec-14 05:30N 27°37' W 082°56'  
2014-Dec-11 11:15N 29°37' W 089°54'  
Track history (hours):
 
Tides and Currents Weather Stations Pressure Air Temp Water Temp Dewpoint Dewpoint Depression Visibility Wind Speed Wind Dir Waves Ship Positions

Coastal 303

Owner: U.S. United Ocean Services, LLC, Tampa, FL. More information available from US FCC via Universal Licensing System and Coast Guard Vessel Documentation Center.

Last reported at 2014-Dec-19 16:22 UTC. Time now 2014-Dec-21 15:08 UTC.
Position N 27°39' W 083°19'.

Length 180 m; draft 8.2 m.

Type: Towing. MMSI: 366751340.

Date/timePositionNaut miles runAvg speedWind from/ knotsBaromVisibWave heightAir tempDewpointWater temp
2014-Dec-19 16:22N 27°39' W 083°19'36 9.1
2014-Dec-19 12:23N 27°38' W 082°38'8 9.6
2014-Dec-19 11:33N 27°44' W 082°32'3 1.7
2014-Dec-19 09:31N 27°47' W 082°30'0 0.0
2014-Dec-19 08:28N 27°47' W 082°30'0 0.0
2014-Dec-19 07:16N 27°47' W 082°30'0 0.0
2014-Dec-19 06:28N 27°47' W 082°30'0 0.0
2014-Dec-19 05:31N 27°47' W 082°30'0 0.1
2014-Dec-19 04:31N 27°47' W 082°30'0 0.1
2014-Dec-19 03:31N 27°47' W 082°30'0 0.0
2014-Dec-19 02:31N 27°47' W 082°30'0 0.0
2014-Dec-19 01:31N 27°47' W 082°30'0 0.0
2014-Dec-19 00:31N 27°47' W 082°30'0 0.0
2014-Dec-18 23:31N 27°47' W 082°30'0 0.0
2014-Dec-18 22:25N 27°47' W 082°30'0 0.1
2014-Dec-18 21:32N 27°47' W 082°30'4 3.9
2014-Dec-18 20:33N 27°49' W 082°26'2 1.5
2014-Dec-18 19:33N 27°48' W 082°25'0 0.1
2014-Dec-18 18:33N 27°48' W 082°25'0 0.0
2014-Dec-18 17:31N 27°48' W 082°25'0 0.0
2014-Dec-18 16:31N 27°48' W 082°25'0 0.0
2014-Dec-18 15:31N 27°48' W 082°25'0 0.0
2014-Dec-18 14:31N 27°48' W 082°25'0 0.0
2014-Dec-18 13:31N 27°48' W 082°25'0 0.0
2014-Dec-18 12:31N 27°48' W 082°25'0 0.0
2014-Dec-18 11:28N 27°48' W 082°25'0 0.0
2014-Dec-18 10:31N 27°48' W 082°25'0 0.0
2014-Dec-18 09:31N 27°48' W 082°25'0 0.0
2014-Dec-18 08:31N 27°48' W 082°25'0 0.0
2014-Dec-18 07:31N 27°48' W 082°25'0 0.0
2014-Dec-18 06:31N 27°48' W 082°25'0 0.0
2014-Dec-18 05:31N 27°48' W 082°25'0 0.0
2014-Dec-18 04:31N 27°48' W 082°25'0 0.0
2014-Dec-18 03:31N 27°48' W 082°25'0 0.0
2014-Dec-18 02:31N 27°48' W 082°25'0 0.0
2014-Dec-18 01:31N 27°48' W 082°25'0 0.0
2014-Dec-18 00:31N 27°48' W 082°25'0 0.0
2014-Dec-17 23:31N 27°48' W 082°25'0 0.0
2014-Dec-17 22:31N 27°48' W 082°25'0 0.0
2014-Dec-17 21:31N 27°48' W 082°25'0 0.0
2014-Dec-17 20:31N 27°48' W 082°25'0 0.0
2014-Dec-17 19:31N 27°48' W 082°25'0 0.1
2014-Dec-17 18:31N 27°48' W 082°25'1 0.5
2014-Dec-17 17:31N 27°48' W 082°25'0 0.1
2014-Dec-17 16:28N 27°48' W 082°25'0 0.0
2014-Dec-17 15:32N 27°48' W 082°25'0 0.0
2014-Dec-17 14:32N 27°48' W 082°25'0 0.0
2014-Dec-17 13:33N 27°48' W 082°25'0 0.0
2014-Dec-17 12:33N 27°48' W 082°25'0 0.0
2014-Dec-17 11:27N 27°48' W 082°25'0 0.0
2014-Dec-17 10:23N 27°48' W 082°25'0 0.0
2014-Dec-17 09:29N 27°48' W 082°25'0 0.0
2014-Dec-17 08:29N 27°48' W 082°25'0 0.0
2014-Dec-17 07:29N 27°48' W 082°25'0 0.0
2014-Dec-17 06:29N 27°48' W 082°25'0 0.0
2014-Dec-17 05:32N 27°48' W 082°25'0 0.0
2014-Dec-17 04:32N 27°48' W 082°25'0 0.0
2014-Dec-17 03:32N 27°48' W 082°25'0 0.0
2014-Dec-17 02:29N 27°48' W 082°25'0 0.0
2014-Dec-17 01:32N 27°48' W 082°25'0 0.0
2014-Dec-17 00:32N 27°48' W 082°25'0 0.0
2014-Dec-16 23:32N 27°48' W 082°25'0 0.0
2014-Dec-16 22:32N 27°48' W 082°25'0 0.0
2014-Dec-16 21:29N 27°48' W 082°25'0 0.0
2014-Dec-16 20:29N 27°48' W 082°25'0 0.0
2014-Dec-16 19:29N 27°48' W 082°25'0 0.0
2014-Dec-16 18:32N 27°48' W 082°25'0 0.0
2014-Dec-16 17:23N 27°48' W 082°25'0 0.0
2014-Dec-16 16:29N 27°48' W 082°25'0 0.0
2014-Dec-16 15:29N 27°48' W 082°25'0 0.0
2014-Dec-16 14:29N 27°48' W 082°25'0 0.0
2014-Dec-16 12:17N 27°48' W 082°25'0 0.0
2014-Dec-16 08:17N 27°48' W 082°25'0 0.0
2014-Dec-16 07:23N 27°48' W 082°25'0 0.0
2014-Dec-16 04:11N 27°48' W 082°25'0 0.0
2014-Dec-16 03:32N 27°48' W 082°25'0 0.0
2014-Dec-16 02:11N 27°48' W 082°25'0 0.0
2014-Dec-16 01:22N 27°48' W 082°25'0 0.0
2014-Dec-15 23:32N 27°48' W 082°25'0 0.0
2014-Dec-15 22:23N 27°48' W 082°25'0 0.0
2014-Dec-15 21:29N 27°48' W 082°25'0 0.0
2014-Dec-15 20:30N 27°48' W 082°25'0 0.0
2014-Dec-15 19:30N 27°48' W 082°25'0 0.0
2014-Dec-15 18:30N 27°48' W 082°25'0 0.0
2014-Dec-15 17:30N 27°48' W 082°25'0 0.0
2014-Dec-15 16:33N 27°48' W 082°25'0 0.0
2014-Dec-15 15:27N 27°48' W 082°25'0 0.0
2014-Dec-15 14:33N 27°48' W 082°25'0 0.0
2014-Dec-15 13:33N 27°48' W 082°25'0 0.0
2014-Dec-15 12:30N 27°48' W 082°25'0 0.0
2014-Dec-15 11:30N 27°48' W 082°25'0 0.0
2014-Dec-15 10:33N 27°48' W 082°25'0 0.0
2014-Dec-15 09:33N 27°48' W 082°25'0 0.0
2014-Dec-15 08:30N 27°48' W 082°25'0 0.0
2014-Dec-15 07:30N 27°48' W 082°25'0 0.0
2014-Dec-15 06:27N 27°48' W 082°25'0 0.0
2014-Dec-15 05:30N 27°48' W 082°25'0 0.0
2014-Dec-15 04:18N 27°48' W 082°25'0 0.0
2014-Dec-15 03:30N 27°48' W 082°25'0 0.0
2014-Dec-15 02:24N 27°48' W 082°25'0 0.0
2014-Dec-15 01:30N 27°48' W 082°25'0 0.0
2014-Dec-14 22:33N 27°48' W 082°25'0 0.3
2014-Dec-14 21:33N 27°48' W 082°25'5 4.8
2014-Dec-14 20:33N 27°47' W 082°30'0 0.3
2014-Dec-14 19:33N 27°47' W 082°30'0 0.1
2014-Dec-14 18:28N 27°47' W 082°30'0 0.0
2014-Dec-14 17:33N 27°47' W 082°30'1 1.3
2014-Dec-14 16:32N 27°46' W 082°31'24 6.0
2014-Dec-14 12:33N 27°37' W 082°56'0 0.0
2014-Dec-14 11:18N 27°37' W 082°56'0 0.0
2014-Dec-14 05:30N 27°37' W 082°56'  
2014-Dec-11 11:15N 29°37' W 089°54'  

Dump ship's entire track history